Ansonville, North Carolina
Current Conditions -  °F | °C
As of 1:15 AM on Saturday 01 Nov 2014 (Local Time) from KAFP Reporting Station
Light Rain Light Rain  
Wind Chill: 47°   Ceiling: 4800
Heat Index: 48°   Visibility: 7mi
Dew Point: 47°   Wind: 5mph
Humidity: 96%   Direction: 50°NE
Pressure: 29.75"   Gusts: NA
Location:  35.1°N, 80.11°W
Report Text: KAFP 010515Z AUTO 05004KT 7SM -RA SCT031 SCT041 OVC048 09/09 A2975 RMK AO2 P0002 T00910085
Loading
Personal Weather Stations






























Interactive Weather Map
Tropical Storm Tracking
New forecast layout! Learn more

10-Day Weather Forecast

Advertisements
Track Severe Weather on mobile